Time;durP1;ratioP1;P1;durP2;ratioP2;P2;SDS_P1;SDS_P2;PMS_P1;PMS_P2;Temp;Humidity;BMP_temperature;BMP_pressure;BME280_temperature;BME280_humidity;BME280_pressure;Samples;Min_cycle;Max_cycle;Signal;HPM_P1;HPM_P2
2024/02/17 00:00:39;;;;;;;15.18;9.00;;;;;;;-146.25;100.00;52633.81;2080665;28;20038;-63
2024/02/17 00:01:42;;;;;;;13.65;8.55;;;;;;;-146.25;100.00;52658.16;2070977;28;36960;-63
2024/02/17 00:02:46;;;;;;;15.27;7.60;;;;;;;-146.25;100.00;52654.09;2071509;28;34441;-63
2024/02/17 00:03:48;;;;;;;13.55;8.32;;;;;;;-146.25;100.00;52603.41;2079908;28;34992;-63
2024/02/17 00:04:50;;;;;;;15.93;8.48;;;;;;;-146.25;100.00;52627.75;2079589;28;39428;-63
2024/02/17 00:05:52;;;;;;;16.10;8.25;;;;;;;-146.25;100.00;52643.97;2080142;28;33778;-63
2024/02/17 00:06:56;;;;;;;14.02;8.63;;;;;;;-146.25;100.00;52623.69;2079852;28;36169;-63
2024/02/17 00:07:58;;;;;;;14.30;8.15;;;;;;;-146.25;100.00;52660.19;2080460;28;36526;-63
2024/02/17 00:09:00;;;;;;;15.10;8.32;;;;;;;-146.25;100.00;52635.84;2079629;28;32694;-64
2024/02/17 00:10:03;;;;;;;13.10;8.05;;;;;;;-146.25;100.00;52617.59;2079779;28;33991;-63
2024/02/17 00:11:05;;;;;;;15.52;8.43;;;;;;;-146.25;100.00;52603.41;2080110;28;22470;-63
2024/02/17 00:12:08;;;;;;;12.93;8.57;;;;;;;-146.25;100.00;52623.69;2080916;28;20042;-63
2024/02/17 00:13:13;;;;;;;14.75;8.38;;;;;;;-146.25;100.00;52621.66;2079756;28;31441;-63
2024/02/17 00:14:14;;;;;;;14.68;8.20;;;;;;;-146.25;100.00;52597.31;2080118;28;25312;-63
2024/02/17 00:15:17;;;;;;;13.18;8.40;;;;;;;-146.25;100.00;52631.78;2079726;28;27006;-64
2024/02/17 00:16:19;;;;;;;14.00;8.55;;;;;;;-146.25;100.00;52660.19;2071419;28;28410;-63
2024/02/17 00:17:21;;;;;;;13.98;8.68;;;;;;;-146.25;100.00;52643.97;2071608;28;21703;-63
2024/02/17 00:18:28;;;;;;;12.85;8.70;;;;;;;-146.25;100.00;52609.50;2080676;28;20088;-63
2024/02/17 00:19:30;;;;;;;13.75;8.32;;;;;;;-146.25;100.00;52672.34;2079668;28;37076;-63
2024/02/17 00:20:32;;;;;;;11.20;8.73;;;;;;;-146.25;100.00;52645.97;2071254;28;31659;-63
2024/02/17 00:21:34;;;;;;;14.15;8.85;;;;;;;-146.25;100.00;52623.69;2071378;28;30922;-64
2024/02/17 00:22:36;;;;;;;17.15;8.45;;;;;;;-146.25;100.00;52643.97;2079643;28;34131;-63
2024/02/17 00:23:37;;;;;;;18.73;9.00;;;;;;;-146.25;100.00;52648.00;2079688;28;33027;-63
2024/02/17 00:24:40;;;;;;;13.32;8.30;;;;;;;-146.25;100.00;52652.06;2080016;28;36438;-62
2024/02/17 00:25:43;;;;;;;13.85;8.32;;;;;;;-146.25;100.00;52664.22;2079401;28;34811;-63
2024/02/17 00:26:45;;;;;;;12.65;8.05;;;;;;;-146.25;100.00;52654.09;2080480;28;20089;-63
2024/02/17 00:27:46;;;;;;;13.63;8.82;;;;;;;-146.25;100.00;52627.75;2079276;28;37132;-63
2024/02/17 00:28:51;;;;;;;13.85;8.43;;;;;;;-146.25;100.00;52621.66;2080505;28;22499;-63
2024/02/17 00:29:55;;;;;;;12.93;8.18;;;;;;;-146.25;100.00;52658.16;2080721;28;20088;-63
2024/02/17 00:30:59;;;;;;;15.27;8.32;;;;;;;-146.25;100.00;52656.13;2080471;28;20034;-63
2024/02/17 00:32:01;;;;;;;15.32;8.65;;;;;;;-146.25;100.00;52641.94;2079420;28;37829;-63
2024/02/17 00:33:05;;;;;;;14.57;8.25;;;;;;;-146.25;100.00;52623.69;2080939;28;20152;-62
2024/02/17 00:34:07;;;;;;;13.48;8.30;;;;;;;-146.25;100.00;52633.81;2079771;28;36628;-63
2024/02/17 00:35:10;;;;;;;13.07;7.88;;;;;;;-146.25;100.00;52648.00;2080412;28;20026;-63
2024/02/17 00:36:12;;;;;;;14.88;9.45;;;;;;;-146.25;100.00;52629.75;2079582;28;36723;-63
2024/02/17 00:37:14;;;;;;;12.05;7.70;;;;;;;-146.25;100.00;52631.78;2079336;28;37459;-63
2024/02/17 00:38:17;;;;;;;14.35;7.85;;;;;;;-146.25;100.00;52639.91;2078899;28;33680;-62
2024/02/17 00:39:19;;;;;;;14.27;8.38;;;;;;;-146.25;100.00;52676.41;2079665;28;38007;-62
2024/02/17 00:40:21;;;;;;;14.48;7.80;;;;;;;-146.25;100.00;52658.16;2080121;28;20069;-63
2024/02/17 00:41:22;;;;;;;11.15;7.53;;;;;;;-146.25;100.00;52615.56;2080120;28;36563;-62
2024/02/17 00:42:26;;;;;;;13.80;7.90;;;;;;;-146.25;100.00;52654.09;2080152;28;20046;-62
2024/02/17 00:43:28;;;;;;;12.98;7.80;;;;;;;-146.25;100.00;52615.56;2079816;28;37048;-62
2024/02/17 00:44:30;;;;;;;13.18;8.25;;;;;;;-146.25;100.00;52643.97;2079373;28;34429;-62
2024/02/17 00:45:35;;;;;;;11.77;7.30;;;;;;;-146.25;100.00;52641.94;2079966;28;20042;-62
2024/02/17 00:46:37;;;;;;;14.00;8.02;;;;;;;-146.25;100.00;52641.94;2080215;28;20042;-62
2024/02/17 00:47:39;;;;;;;14.90;8.07;;;;;;;-146.25;100.00;52656.13;2079783;28;36089;-62
2024/02/17 00:48:40;;;;;;;14.57;7.47;;;;;;;-146.25;100.00;52641.94;2080293;28;20149;-63
2024/02/17 00:49:42;;;;;;;13.60;7.22;;;;;;;-146.25;100.00;52658.16;2079700;28;36480;-62
2024/02/17 00:50:45;;;;;;;14.25;7.72;;;;;;;-146.25;100.00;52660.19;2079622;28;33201;-62
2024/02/17 00:51:50;;;;;;;10.15;7.60;;;;;;;-146.25;100.00;52654.09;2080167;28;34017;-63
2024/02/17 00:52:52;;;;;;;11.88;7.68;;;;;;;-146.25;100.00;52611.50;2079301;28;37185;-64
2024/02/17 00:53:54;;;;;;;14.43;8.30;;;;;;;-146.25;100.00;52621.66;2079428;28;33374;-64
2024/02/17 00:54:56;;;;;;;12.50;7.68;;;;;;;-146.25;100.00;52641.94;2079845;28;20042;-64
2024/02/17 00:56:00;;;;;;;14.02;8.20;;;;;;;-146.25;100.00;52700.72;2079765;28;36710;-64
2024/02/17 00:57:02;;;;;;;16.75;8.10;;;;;;;-146.25;100.00;52627.75;2079477;28;31099;-64
2024/02/17 00:58:04;;;;;;;12.45;7.55;;;;;;;-146.25;100.00;52672.34;2079763;28;33886;-64
2024/02/17 00:59:06;;;;;;;13.55;8.07;;;;;;;-146.25;100.00;52639.91;2079340;28;36311;-64
2024/02/17 01:00:09;;;;;;;20.10;8.15;;;;;;;-146.25;100.00;52641.94;2079486;28;34270;-64
2024/02/17 01:01:11;;;;;;;14.07;8.02;;;;;;;-146.25;100.00;52619.63;2079189;28;35944;-64
2024/02/17 01:02:18;;;;;;;13.88;7.80;;;;;;;-146.25;100.00;52648.00;2080804;28;20038;-64
2024/02/17 01:03:20;;;;;;;15.25;8.02;;;;;;;-146.25;100.00;52627.75;2079620;28;36459;-64
2024/02/17 01:04:21;;;;;;;11.52;7.45;;;;;;;-146.25;100.00;52652.06;2079280;28;35229;-64
2024/02/17 01:05:23;;;;;;;17.25;8.48;;;;;;;-146.25;100.00;52631.78;2080220;28;20177;-64
2024/02/17 01:06:25;;;;;;;11.25;7.80;;;;;;;-146.25;100.00;52658.16;2079678;28;36779;-64
2024/02/17 01:07:27;;;;;;;15.57;8.75;;;;;;;-146.25;100.00;52654.09;2079401;28;35401;-64
2024/02/17 01:08:29;;;;;;;14.40;7.55;;;;;;;-146.25;100.00;52633.81;2079453;28;33621;-63
2024/02/17 01:09:31;;;;;;;14.73;8.10;;;;;;;-146.25;100.00;52650.03;2079294;28;34228;-63
2024/02/17 01:10:33;;;;;;;15.43;8.70;;;;;;;-146.25;100.00;52664.22;2080389;28;20124;-63
2024/02/17 01:11:35;;;;;;;12.23;8.85;;;;;;;-146.25;100.00;52629.75;2079648;28;24872;-63
2024/02/17 01:12:37;;;;;;;11.65;7.93;;;;;;;-146.25;100.00;52637.88;2079678;28;24369;-63
2024/02/17 01:13:40;;;;;;;15.95;9.30;;;;;;;-146.25;100.00;52639.91;2079914;28;25990;-64
2024/02/17 01:14:42;;;;;;;13.25;9.13;;;;;;;-146.25;100.00;52621.66;2080558;28;21461;-63
2024/02/17 01:15:44;;;;;;;15.35;8.32;;;;;;;-146.25;100.00;52633.81;2080092;28;20939;-63
2024/02/17 01:16:46;;;;;;;14.95;8.80;;;;;;;-146.25;100.00;52639.91;2079636;28;27886;-63
2024/02/17 01:17:48;;;;;;;16.02;9.45;;;;;;;-146.25;100.00;52650.03;2080462;28;20046;-63
2024/02/17 01:18:50;;;;;;;17.90;9.10;;;;;;;-146.25;100.00;52625.72;2079732;28;23449;-63
2024/02/17 01:19:52;;;;;;;12.43;8.73;;;;;;;-146.25;100.00;52637.88;2070391;28;28139;-63
2024/02/17 01:20:54;;;;;;;18.15;9.77;;;;;;;-146.25;100.00;52641.94;2071765;28;20030;-63
2024/02/17 01:21:56;;;;;;;16.30;9.15;;;;;;;-146.25;100.00;52680.47;2079703;28;22082;-63
2024/02/17 01:22:57;;;;;;;19.40;10.43;;;;;;;-146.25;100.00;52637.88;2080116;28;21074;-63
2024/02/17 01:24:00;;;;;;;17.70;9.95;;;;;;;-146.25;100.00;52652.06;2079534;28;24029;-63
2024/02/17 01:25:03;;;;;;;16.33;9.48;;;;;;;-146.25;100.00;52643.97;2079779;28;23883;-62
2024/02/17 01:26:06;;;;;;;20.15;9.88;;;;;;;-146.25;100.00;52658.16;2076728;28;29866;-63
2024/02/17 01:27:08;;;;;;;16.65;9.32;;;;;;;-146.25;100.00;52648.00;2079773;28;36204;-63
2024/02/17 01:28:10;;;;;;;14.68;9.98;;;;;;;-146.25;100.00;52627.75;2079185;28;25421;-63
2024/02/17 01:29:12;;;;;;;13.52;9.30;;;;;;;-146.25;100.00;52601.38;2078678;28;34412;-63
2024/02/17 01:30:14;;;;;;;16.45;9.50;;;;;;;-146.25;100.00;52666.25;2078809;28;36059;-63
2024/02/17 01:31:16;;;;;;;17.58;9.57;;;;;;;-146.25;100.00;52601.38;2080188;28;20793;-64
2024/02/17 01:32:17;;;;;;;18.52;9.32;;;;;;;-146.25;100.00;52639.91;2079079;28;37241;-63
2024/02/17 01:33:19;;;;;;;20.23;10.85;;;;;;;-146.25;100.00;52639.91;2079720;28;33592;-63
2024/02/17 01:34:21;;;;;;;17.35;9.85;;;;;;;-146.25;100.00;52623.69;2079138;28;33545;-63
2024/02/17 01:35:23;;;;;;;19.13;10.23;;;;;;;-146.25;100.00;52660.19;2080190;28;20041;-63
2024/02/17 01:36:24;;;;;;;18.90;10.05;;;;;;;-146.25;100.00;52587.19;2079474;28;37310;-63
2024/02/17 01:37:26;;;;;;;16.88;9.10;;;;;;;-146.25;100.00;52680.47;2079299;28;36111;-63
2024/02/17 01:38:30;;;;;;;19.92;10.20;;;;;;;-146.25;100.00;52656.13;2079600;28;32336;-64
2024/02/17 01:39:34;;;;;;;14.45;9.27;;;;;;;-146.25;100.00;52656.13;2078829;28;37355;-63
2024/02/17 01:40:36;;;;;;;17.60;10.20;;;;;;;-146.25;100.00;52643.97;2079445;28;20046;-63
2024/02/17 01:41:38;;;;;;;16.30;10.38;;;;;;;-146.25;100.00;52656.13;2079640;28;34107;-63
2024/02/17 01:42:40;;;;;;;19.08;10.05;;;;;;;-146.25;100.00;52648.00;2079324;28;34822;-63
2024/02/17 01:43:45;;;;;;;19.00;10.77;;;;;;;-146.25;100.00;52635.84;2079371;28;32306;-63
2024/02/17 01:44:47;;;;;;;18.75;9.77;;;;;;;-146.25;100.00;52645.97;2078718;28;37464;-63
2024/02/17 01:45:49;;;;;;;18.75;10.48;;;;;;;-146.25;100.00;52652.06;2080092;28;20160;-63
2024/02/17 01:46:52;;;;;;;18.98;10.27;;;;;;;-146.25;100.00;52627.75;2070193;28;36209;-63
2024/02/17 01:47:55;;;;;;;17.05;9.35;;;;;;;-146.25;100.00;52621.66;2070508;28;20047;-63
2024/02/17 01:48:56;;;;;;;16.25;9.68;;;;;;;-146.25;100.00;52639.91;2070067;28;37993;-63
2024/02/17 01:49:59;;;;;;;18.13;9.18;;;;;;;-146.25;100.00;52670.31;2079715;28;20391;-63
2024/02/17 01:51:04;;;;;;;17.58;10.07;;;;;;;-146.25;100.00;52607.47;2079233;28;32432;-63
2024/02/17 01:52:06;;;;;;;17.35;9.70;;;;;;;-146.25;100.00;52643.97;2071101;28;37789;-63
2024/02/17 01:53:08;;;;;;;17.48;9.70;;;;;;;-146.25;100.00;52635.84;2071689;28;20046;-63
2024/02/17 01:54:10;;;;;;;17.40;9.45;;;;;;;-146.25;100.00;52648.00;2079627;28;34966;-63
2024/02/17 01:55:13;;;;;;;13.40;9.50;;;;;;;-146.25;100.00;52648.00;2078944;28;34097;-63
2024/02/17 01:56:18;;;;;;;16.35;9.13;;;;;;;-146.25;100.00;52639.91;2070527;28;34330;-63
2024/02/17 01:57:21;;;;;;;17.27;9.27;;;;;;;-146.25;100.00;52631.78;2071418;28;29379;-63
2024/02/17 01:58:23;;;;;;;20.30;9.70;;;;;;;-146.25;100.00;52664.22;2079513;28;34774;-63
2024/02/17 01:59:27;;;;;;;17.70;9.70;;;;;;;-146.25;100.00;52631.78;2079017;28;36654;-63
2024/02/17 02:00:29;;;;;;;17.38;9.43;;;;;;;-146.25;100.00;52656.13;2079738;28;31235;-63
2024/02/17 02:01:33;;;;;;;18.77;9.25;;;;;;;-146.25;100.00;52623.69;2070110;28;35225;-63
2024/02/17 02:02:38;;;;;;;18.70;8.93;;;;;;;-146.25;100.00;52674.38;2070607;28;36939;-63
2024/02/17 02:03:41;;;;;;;13.00;8.57;;;;;;;-146.25;100.00;52635.84;2070815;28;20047;-63
2024/02/17 02:04:43;;;;;;;20.48;8.98;;;;;;;-146.25;100.00;52680.47;2071562;28;34480;-63
2024/02/17 02:05:48;;;;;;;16.98;8.85;;;;;;;-146.25;100.00;52662.22;2070254;28;34265;-63
2024/02/17 02:06:51;;;;;;;14.10;8.68;;;;;;;-146.25;100.00;52627.75;2070702;28;33456;-63
2024/02/17 02:07:52;;;;;;;14.85;7.88;;;;;;;-146.25;100.00;52623.69;2070451;28;37076;-63
2024/02/17 02:08:55;;;;;;;16.95;8.75;;;;;;;-146.25;100.00;52637.88;2080136;28;20049;-63
2024/02/17 02:09:56;;;;;;;14.30;8.82;;;;;;;-146.25;100.00;52643.97;2078722;28;35664;-63
2024/02/17 02:11:01;;;;;;;14.70;8.45;;;;;;;-146.25;100.00;52643.97;2080112;28;20167;-63
2024/02/17 02:12:06;;;;;;;13.88;8.25;;;;;;;-146.25;100.00;52623.69;2079689;28;20132;-63
2024/02/17 02:13:10;;;;;;;20.48;8.95;;;;;;;-146.25;100.00;52603.41;2079398;28;26629;-63
2024/02/17 02:14:16;;;;;;;19.70;8.77;;;;;;;-146.25;100.00;52635.84;2079329;28;20042;-63
2024/02/17 02:15:18;;;;;;;13.15;7.30;;;;;;;-146.25;100.00;52643.97;2079930;28;22615;-63
2024/02/17 02:16:22;;;;;;;16.55;7.68;;;;;;;-146.25;100.00;52643.97;2070670;28;20041;-63
2024/02/17 02:17:24;;;;;;;14.43;7.35;;;;;;;-146.25;100.00;52619.63;2071439;28;20925;-63
2024/02/17 02:18:26;;;;;;;13.23;7.75;;;;;;;-146.25;100.00;52625.72;2079479;28;20104;-63
2024/02/17 02:19:27;;;;;;;15.98;7.57;;;;;;;-146.25;100.00;52627.75;2079378;28;25504;-63
2024/02/17 02:20:30;;;;;;;16.25;8.00;;;;;;;-146.25;100.00;52599.34;2079271;28;26934;-63
2024/02/17 02:21:31;;;;;;;15.13;7.40;;;;;;;-146.25;100.00;52641.94;2080129;28;20910;-63
2024/02/17 02:22:35;;;;;;;19.20;8.63;;;;;;;-146.25;100.00;52656.13;2079534;28;25282;-63
2024/02/17 02:23:37;;;;;;;12.35;7.28;;;;;;;-146.25;100.00;52635.84;2079622;28;20034;-63
2024/02/17 02:24:39;;;;;;;12.85;7.53;;;;;;;-146.25;100.00;52643.97;2079465;28;25604;-63
2024/02/17 02:25:57;;;;;;;15.27;7.75;;;;;;;-146.25;100.00;52631.78;2070524;28;22691;-63
2024/02/17 02:26:59;;;;;;;15.10;8.20;;;;;;;-146.25;100.00;52627.75;2073432;28;23393;-63
2024/02/17 02:28:00;;;;;;;14.32;7.53;;;;;;;-146.25;100.00;52656.13;2070872;28;20154;-63
2024/02/17 02:29:03;;;;;;;19.13;7.63;;;;;;;-146.25;100.00;52639.91;2070756;28;20038;-63
2024/02/17 02:30:06;;;;;;;14.18;7.47;;;;;;;-146.25;100.00;52641.94;2079238;28;26796;-63
2024/02/17 02:31:08;;;;;;;12.45;7.10;;;;;;;-146.25;100.00;52652.06;2079891;28;20404;-63
2024/02/17 02:32:12;;;;;;;17.35;6.43;;;;;;;-146.25;100.00;52639.91;2079507;28;23106;-63
2024/02/17 02:33:14;;;;;;;14.05;6.63;;;;;;;-146.25;100.00;52668.28;2070339;28;22044;-63
2024/02/17 02:34:19;;;;;;;13.73;6.63;;;;;;;-146.25;100.00;52643.97;2070625;28;23920;-63
2024/02/17 02:35:21;;;;;;;11.32;6.07;;;;;;;-146.25;100.00;52656.13;2079243;28;26610;-63
2024/02/17 02:36:22;;;;;;;13.45;6.45;;;;;;;-146.25;100.00;52656.13;2078791;28;28900;-63
2024/02/17 02:37:30;;;;;;;12.90;6.10;;;;;;;-146.25;100.00;52645.97;2079745;28;24258;-63
2024/02/17 02:38:34;;;;;;;13.27;5.72;;;;;;;-146.25;100.00;52676.41;2079254;28;23510;-63
2024/02/17 02:39:36;;;;;;;8.40;4.60;;;;;;;-146.25;100.00;52660.19;2079521;28;20077;-63
2024/02/17 02:40:38;;;;;;;8.57;4.60;;;;;;;-146.25;100.00;52664.22;2079333;28;24730;-63
2024/02/17 02:41:39;;;;;;;12.30;5.07;;;;;;;-146.25;100.00;52670.31;2079614;28;25227;-63
2024/02/17 02:42:41;;;;;;;11.20;4.80;;;;;;;-146.25;100.00;52668.28;2079523;28;24880;-63
2024/02/17 02:43:43;;;;;;;8.60;4.55;;;;;;;-146.25;100.00;52643.97;2079809;28;24227;-63
2024/02/17 02:44:47;;;;;;;12.07;4.65;;;;;;;-146.25;100.00;52658.16;2070911;28;20053;-63
2024/02/17 02:45:49;;;;;;;11.20;4.43;;;;;;;-146.25;100.00;52623.69;2071047;28;28972;-63
2024/02/17 02:46:51;;;;;;;11.52;4.35;;;;;;;-146.25;100.00;52666.25;2079643;28;20089;-63
2024/02/17 02:47:55;;;;;;;10.27;4.53;;;;;;;-146.25;100.00;52627.75;2078654;28;27833;-62
2024/02/17 02:48:57;;;;;;;12.63;4.32;;;;;;;-146.25;100.00;52654.09;2078941;28;30909;-63
2024/02/17 02:50:01;;;;;;;8.25;4.68;;;;;;;-146.25;100.00;52639.91;2079620;28;21851;-63
2024/02/17 02:51:03;;;;;;;8.38;4.07;;;;;;;-146.25;100.00;52639.91;2079738;28;20523;-63
2024/02/17 02:52:05;;;;;;;11.52;4.43;;;;;;;-146.25;100.00;52625.72;2079239;28;28667;-63
2024/02/17 02:53:09;;;;;;;7.63;4.30;;;;;;;-146.25;100.00;52617.59;2078952;28;30398;-63
2024/02/17 02:54:11;;;;;;;10.77;4.80;;;;;;;-146.25;100.00;52611.50;2079499;28;20473;-63
2024/02/17 02:55:13;;;;;;;7.95;4.13;;;;;;;-146.25;100.00;52648.00;2078802;28;37031;-63
2024/02/17 02:56:14;;;;;;;7.95;3.97;;;;;;;-146.25;100.00;52656.13;2079459;28;25554;-63
2024/02/17 02:57:16;;;;;;;8.90;4.15;;;;;;;-146.25;100.00;52654.09;2070668;28;20805;-63
2024/02/17 02:58:21;;;;;;;9.65;4.10;;;;;;;-146.25;100.00;52637.88;2070373;28;33159;-63
2024/02/17 02:59:22;;;;;;;7.47;3.95;;;;;;;-146.25;100.00;52631.78;2079351;28;20180;-63
2024/02/17 03:00:24;;;;;;;7.95;3.97;;;;;;;-146.25;100.00;52609.50;2078281;28;32681;-63
2024/02/17 03:01:26;;;;;;;11.70;4.30;;;;;;;-146.25;100.00;52635.84;2080560;28;28853;-63
2024/02/17 03:02:28;;;;;;;10.25;3.97;;;;;;;-146.25;100.00;52639.91;2071544;28;24086;-63
2024/02/17 03:03:31;;;;;;;7.10;4.00;;;;;;;-146.25;100.00;52648.00;2071779;28;29778;-63
2024/02/17 03:04:33;;;;;;;12.70;3.88;;;;;;;-146.25;100.00;52648.00;2081043;28;20054;-63
2024/02/17 03:05:37;;;;;;;6.80;3.25;;;;;;;-146.25;100.00;52615.56;2080621;28;34126;-63
2024/02/17 03:06:39;;;;;;;7.18;3.13;;;;;;;-146.25;100.00;52639.91;2080878;28;31251;-63
2024/02/17 03:07:41;;;;;;;8.68;3.38;;;;;;;-146.25;100.00;52635.84;2081053;28;20910;-63
2024/02/17 03:08:43;;;;;;;7.05;3.25;;;;;;;-146.25;100.00;52688.56;2080446;28;27338;-63
2024/02/17 03:09:47;;;;;;;7.18;3.15;;;;;;;-146.25;100.00;52668.28;2080750;28;24545;-63
2024/02/17 03:10:49;;;;;;;7.75;3.40;;;;;;;-146.25;100.00;52639.91;2080559;28;29882;-64
2024/02/17 03:11:53;;;;;;;6.25;3.38;;;;;;;-146.25;100.00;52652.06;2073642;28;33830;-63
2024/02/17 03:12:59;;;;;;;8.48;3.20;;;;;;;-146.25;100.00;52627.75;2079888;28;20038;-63
2024/02/17 03:14:00;;;;;;;7.75;3.70;;;;;;;-146.25;100.00;52648.00;2080437;28;23959;-63
2024/02/17 03:15:03;;;;;;;8.77;3.80;;;;;;;-146.25;100.00;52672.34;2080108;28;23469;-63
2024/02/17 03:16:05;;;;;;;7.63;3.70;;;;;;;-146.25;100.00;52639.91;2080762;28;21052;-63
2024/02/17 03:17:07;;;;;;;8.82;3.30;;;;;;;-146.25;100.00;52619.63;2080558;28;20756;-63
2024/02/17 03:18:11;;;;;;;9.20;3.70;;;;;;;-146.25;100.00;52643.97;2080495;28;20176;-64
2024/02/17 03:19:13;;;;;;;7.10;3.22;;;;;;;-146.25;100.00;52668.28;2080169;28;26567;-62
2024/02/17 03:20:17;;;;;;;8.60;3.67;;;;;;;-146.25;100.00;52648.00;2080323;28;37227;-63
2024/02/17 03:21:19;;;;;;;11.02;3.80;;;;;;;-146.25;100.00;52633.81;2080642;28;26621;-63
2024/02/17 03:22:21;;;;;;;8.68;2.85;;;;;;;-146.25;100.00;52643.97;2080618;28;23611;-63
2024/02/17 03:23:23;;;;;;;7.68;3.55;;;;;;;-146.25;100.00;52593.25;2080317;28;25423;-63
2024/02/17 03:24:24;;;;;;;8.68;3.22;;;;;;;-146.25;100.00;52617.59;2080905;28;20116;-63
2024/02/17 03:25:26;;;;;;;10.07;3.63;;;;;;;-146.25;100.00;52617.59;2080299;28;23578;-63
2024/02/17 03:26:28;;;;;;;9.85;3.40;;;;;;;-146.25;100.00;52670.31;2080153;28;33685;-63
2024/02/17 03:27:30;;;;;;;8.05;3.42;;;;;;;-146.25;100.00;52627.75;2080696;28;21133;-63
2024/02/17 03:28:32;;;;;;;8.18;3.70;;;;;;;-146.25;100.00;52631.78;2080704;28;22021;-63
2024/02/17 03:29:33;;;;;;;6.03;3.35;;;;;;;-146.25;100.00;52603.41;2080547;28;26833;-63
2024/02/17 03:30:36;;;;;;;7.03;2.78;;;;;;;-146.25;100.00;52656.13;2079862;28;35873;-63
2024/02/17 03:31:38;;;;;;;6.45;3.13;;;;;;;-146.25;100.00;52690.59;2080730;28;24840;-63
2024/02/17 03:32:40;;;;;;;6.50;2.70;;;;;;;-146.25;100.00;52623.69;2080689;28;21616;-63
2024/02/17 03:33:42;;;;;;;7.45;3.10;;;;;;;-146.25;100.00;52656.13;2080285;28;22732;-63
2024/02/17 03:34:44;;;;;;;6.28;2.83;;;;;;;-146.25;100.00;52680.47;2071867;28;20098;-63
2024/02/17 03:35:46;;;;;;;8.35;3.30;;;;;;;-146.25;100.00;52670.31;2071434;28;22963;-63
2024/02/17 03:36:48;;;;;;;9.88;3.33;;;;;;;-146.25;100.00;52668.28;2080107;28;26980;-63
2024/02/17 03:37:49;;;;;;;7.80;3.30;;;;;;;-146.25;100.00;52654.09;2080743;28;23384;-63
2024/02/17 03:38:51;;;;;;;10.43;3.38;;;;;;;-146.25;100.00;52623.69;2080252;28;30209;-63
2024/02/17 03:39:56;;;;;;;9.75;3.17;;;;;;;-146.25;100.00;52623.69;2080668;28;20066;-63
2024/02/17 03:40:58;;;;;;;8.25;3.20;;;;;;;-146.25;100.00;52648.00;2080010;28;34948;-64
2024/02/17 03:42:02;;;;;;;7.18;3.53;;;;;;;-146.25;100.00;52648.00;2080941;28;20172;-63
2024/02/17 03:43:04;;;;;;;11.23;3.85;;;;;;;-146.25;100.00;52611.50;2080386;28;28082;-63
2024/02/17 03:44:06;;;;;;;8.68;4.10;;;;;;;-146.25;100.00;52631.78;2080503;28;24652;-63
2024/02/17 03:45:08;;;;;;;11.02;3.85;;;;;;;-146.25;100.00;52635.84;2079877;28;30931;-63
2024/02/17 03:46:10;;;;;;;9.20;3.75;;;;;;;-146.25;100.00;52629.75;2080074;28;29765;-63
2024/02/17 03:47:12;;;;;;;5.32;3.45;;;;;;;-146.25;100.00;52654.09;2080080;28;30051;-63
2024/02/17 03:48:14;;;;;;;6.80;3.75;;;;;;;-146.25;100.00;52680.47;2080402;28;20920;-63
2024/02/17 03:49:20;;;;;;;9.23;3.85;;;;;;;-146.25;100.00;52645.97;2080231;28;25311;-63
2024/02/17 03:50:22;;;;;;;9.60;3.90;;;;;;;-146.25;100.00;52627.75;2080371;28;33122;-62
2024/02/17 03:51:27;;;;;;;8.98;3.83;;;;;;;-146.25;100.00;52627.75;2080459;28;27130;-63
2024/02/17 03:52:29;;;;;;;7.70;3.65;;;;;;;-146.25;100.00;52611.50;2080639;28;21591;-63
2024/02/17 03:53:31;;;;;;;8.13;3.30;;;;;;;-146.25;100.00;52668.28;2080174;28;32699;-63
2024/02/17 03:54:33;;;;;;;8.70;3.40;;;;;;;-146.25;100.00;52633.81;2079863;28;25628;-63
2024/02/17 03:55:35;;;;;;;10.27;3.55;;;;;;;-146.25;100.00;52635.84;2080557;28;24179;-63
2024/02/17 03:56:36;;;;;;;8.43;3.28;;;;;;;-146.25;100.00;52666.25;2079872;28;28052;-63
2024/02/17 03:57:39;;;;;;;6.93;2.47;;;;;;;-146.25;100.00;52660.19;2080213;28;32591;-63
2024/02/17 03:58:41;;;;;;;5.82;2.58;;;;;;;-146.25;100.00;52654.09;2080138;28;34359;-63
2024/02/17 03:59:43;;;;;;;9.85;2.70;;;;;;;-146.25;100.00;52623.69;2079822;28;31458;-63
2024/02/17 04:00:47;;;;;;;9.18;2.35;;;;;;;-146.25;100.00;52668.28;2080077;28;31031;-63
2024/02/17 04:02:15;;;;;;;5.82;2.10;;;;;;;-146.25;100.00;52668.28;2080440;28;20172;-63
2024/02/17 04:03:17;;;;;;;4.68;2.15;;;;;;;-146.25;100.00;52607.47;2079542;28;35436;-63
2024/02/17 04:04:19;;;;;;;6.07;2.20;;;;;;;-146.25;100.00;52611.50;2080763;28;20045;-63
2024/02/17 04:05:21;;;;;;;5.75;2.47;;;;;;;-146.25;100.00;52656.13;2080004;28;35220;-63
2024/02/17 04:06:23;;;;;;;6.80;2.78;;;;;;;-146.25;100.00;52623.69;2079709;28;30321;-63
2024/02/17 04:07:25;;;;;;;7.50;3.00;;;;;;;-146.25;100.00;52652.06;2080173;28;33124;-63
2024/02/17 04:08:27;;;;;;;5.65;2.67;;;;;;;-146.25;100.00;52676.41;2079571;28;39164;-62
2024/02/17 04:09:31;;;;;;;8.70;2.70;;;;;;;-146.25;100.00;52643.97;2080115;28;34115;-63
2024/02/17 04:10:32;;;;;;;6.07;2.70;;;;;;;-146.25;100.00;52639.91;2079504;28;30496;-63
2024/02/17 04:11:34;;;;;;;5.97;2.70;;;;;;;-146.25;100.00;52680.47;2080459;28;25368;-63
2024/02/17 04:12:37;;;;;;;6.28;2.40;;;;;;;-146.25;100.00;52621.66;2079194;28;30945;-63
2024/02/17 04:13:39;;;;;;;7.00;3.00;;;;;;;-146.25;100.00;52619.63;2081014;28;20157;-63
2024/02/17 04:14:43;;;;;;;7.57;2.53;;;;;;;-146.25;100.00;52680.47;2080227;28;21147;-63
2024/02/17 04:15:45;;;;;;;6.05;2.75;;;;;;;-146.25;100.00;52654.09;2080484;28;20168;-63
2024/02/17 04:16:46;;;;;;;6.88;3.50;;;;;;;-146.25;100.00;52641.94;2080301;28;20164;-63
2024/02/17 04:17:48;;;;;;;7.90;3.10;;;;;;;-146.25;100.00;52631.78;2080078;28;26867;-63
2024/02/17 04:18:50;;;;;;;8.55;3.00;;;;;;;-146.25;100.00;52662.22;2079987;28;24135;-63
2024/02/17 04:19:52;;;;;;;9.20;3.58;;;;;;;-146.25;100.00;52623.69;2080186;28;22469;-63
2024/02/17 04:20:54;;;;;;;7.55;3.45;;;;;;;-146.25;100.00;52674.38;2080612;28;20088;-63
2024/02/17 04:21:56;;;;;;;8.02;3.63;;;;;;;-146.25;100.00;52668.28;2080368;28;22230;-63
2024/02/17 04:22:58;;;;;;;11.05;3.40;;;;;;;-146.25;100.00;52577.03;2079677;28;27872;-63
2024/02/17 04:24:00;;;;;;;8.70;3.67;;;;;;;-146.25;100.00;52641.94;2080757;28;20077;-63
2024/02/17 04:25:04;;;;;;;7.68;3.80;;;;;;;-146.25;100.00;52635.84;2080129;28;20151;-63
2024/02/17 04:26:09;;;;;;;7.47;3.38;;;;;;;-146.25;100.00;52629.75;2080116;28;20164;-63
2024/02/17 04:27:11;;;;;;;12.75;4.40;;;;;;;-146.25;100.00;52654.09;2079934;28;24419;-63
2024/02/17 04:28:13;;;;;;;8.57;3.50;;;;;;;-146.25;100.00;52672.34;2079929;28;25539;-63
2024/02/17 04:29:17;;;;;;;7.07;3.22;;;;;;;-146.25;100.00;52639.91;2080443;28;20152;-61
2024/02/17 04:30:19;;;;;;;7.07;3.00;;;;;;;-146.25;100.00;52652.06;2080170;28;21145;-62
2024/02/17 04:31:23;;;;;;;8.30;2.90;;;;;;;-146.25;100.00;52654.09;2080804;28;20056;-62
2024/02/17 04:32:27;;;;;;;10.38;2.90;;;;;;;-146.25;100.00;52641.94;2080174;28;27391;-62
2024/02/17 04:33:29;;;;;;;7.45;2.85;;;;;;;-146.25;100.00;52641.94;2079854;28;24305;-62
2024/02/17 04:34:32;;;;;;;7.63;2.75;;;;;;;-146.25;100.00;52668.28;2080556;28;20041;-62
2024/02/17 04:35:34;;;;;;;6.60;2.40;;;;;;;-146.25;100.00;52629.75;2080832;28;20111;-62
2024/02/17 04:36:36;;;;;;;7.90;3.10;;;;;;;-146.25;100.00;52654.09;2080199;28;20046;-62
2024/02/17 04:37:38;;;;;;;8.23;2.88;;;;;;;-146.25;100.00;52658.16;2079927;28;22196;-62
2024/02/17 04:38:41;;;;;;;6.95;2.70;;;;;;;-146.25;100.00;52621.66;2080116;28;31025;-62
2024/02/17 04:39:42;;;;;;;6.00;2.08;;;;;;;-146.25;100.00;52652.06;2080056;28;21030;-62
2024/02/17 04:40:45;;;;;;;4.47;1.77;;;;;;;-146.25;100.00;52621.66;2080285;28;27653;-62
2024/02/17 04:41:47;;;;;;;4.43;2.13;;;;;;;-146.25;100.00;52660.19;2079668;28;27819;-61
2024/02/17 04:42:52;;;;;;;6.65;2.45;;;;;;;-146.25;100.00;52674.38;2080365;28;26232;-62